Terminal Aerodrome Forecast
Issued by NWS

Home | Current Version | Previous Version | Graphics & Text | Print | Product List | Glossary On
Versions: 1 2 3 4 5 6 7 8 9 10 11 12 13 14 15 16
000
FTUS43 KBIS 151720
TAFDIK
TAF
KDIK 151720Z 1518/1618 27015G23KT P6SM BKN200
     FM152100 27014KT P6SM BKN200
     FM160900 30010KT P6SM OVC025=

USA.gov is the U.S. government's official web portal to all federal, state and local government web resources and services.